createdAt,value
2022-08-16T00:00:39.348Z,66.13
2022-08-16T00:01:40.939Z,66.33
2022-08-16T00:02:38.241Z,66.33
2022-08-16T00:03:38.232Z,66.33
2022-08-16T00:04:38.242Z,66.33
2022-08-16T00:05:38.211Z,66.24
2022-08-16T00:06:39.618Z,66.33
2022-08-16T00:07:38.192Z,66.33
2022-08-16T00:08:38.172Z,66.33
2022-08-16T00:09:38.188Z,66.33
2022-08-16T00:10:38.212Z,66.24
2022-08-16T00:11:38.153Z,66.24
2022-08-16T00:12:38.132Z,66.33
2022-08-16T00:13:41.393Z,66.53
2022-08-16T00:14:38.132Z,66.53
2022-08-16T00:15:52.072Z,66.63
2022-08-16T00:17:06.679Z,66.73
2022-08-16T00:17:56.371Z,66.83
2022-08-16T00:18:39.070Z,66.83
2022-08-16T00:19:41.661Z,66.93
2022-08-16T00:20:38.052Z,67.03
2022-08-16T00:21:38.082Z,67.03
2022-08-16T00:22:38.032Z,67.23
2022-08-16T00:23:40.410Z,67.13
2022-08-16T00:24:39.003Z,67.13
2022-08-16T00:26:35.029Z,67.26
2022-08-16T00:26:43.838Z,66.96
2022-08-16T00:27:38.977Z,67.07
2022-08-16T00:28:37.964Z,67.16
2022-08-16T00:29:37.964Z,67.07
2022-08-16T00:30:37.933Z,67.07
2022-08-16T00:31:58.673Z,67.16
2022-08-16T00:32:38.922Z,67.36
2022-08-16T00:33:37.913Z,67.36
2022-08-16T00:34:43.465Z,67.69
2022-08-16T00:35:38.933Z,67.60
2022-08-16T00:36:37.874Z,67.69
2022-08-16T00:37:57.274Z,67.80
2022-08-16T00:38:43.321Z,67.80
2022-08-16T00:39:39.009Z,67.99
2022-08-16T00:40:43.593Z,67.90
2022-08-16T00:41:38.834Z,67.99
2022-08-16T00:42:37.812Z,67.90
2022-08-16T00:43:42.536Z,67.80
2022-08-16T00:44:38.824Z,67.60
2022-08-16T00:45:37.814Z,67.60
2022-08-16T00:46:38.765Z,67.60
2022-08-16T00:47:38.771Z,67.60
2022-08-16T00:48:43.771Z,67.60
2022-08-16T00:49:39.478Z,67.69
2022-08-16T00:50:38.795Z,67.69
2022-08-16T00:51:38.665Z,67.69
2022-08-16T00:52:37.708Z,67.80
2022-08-16T00:53:38.704Z,67.69
2022-08-16T00:54:37.685Z,67.69
2022-08-16T00:55:38.236Z,67.80
2022-08-16T00:56:56.699Z,68.10
2022-08-16T00:57:58.314Z,67.90
2022-08-16T00:58:38.635Z,67.99
2022-08-16T00:59:37.637Z,67.99
2022-08-16T01:00:38.662Z,67.99
2022-08-16T01:01:37.614Z,67.99
2022-08-16T01:02:37.596Z,67.90
2022-08-16T01:03:37.615Z,67.99
2022-08-16T01:04:37.576Z,68.19
2022-08-16T01:05:37.576Z,68.49
2022-08-16T01:06:48.804Z,68.70
2022-08-16T01:07:50.426Z,68.79
2022-08-16T01:08:38.596Z,68.79
2022-08-16T01:09:37.572Z,68.89
2022-08-16T01:10:38.090Z,68.79
2022-08-16T01:11:37.507Z,68.82
2022-08-16T01:12:38.526Z,68.93
2022-08-16T01:13:37.490Z,68.82
2022-08-16T01:14:37.467Z,68.93
2022-08-16T01:15:37.494Z,68.93
2022-08-16T01:16:38.447Z,68.93
2022-08-16T01:17:37.560Z,69.13
2022-08-16T01:18:40.659Z,69.02
2022-08-16T01:19:37.427Z,69.02
2022-08-16T01:20:37.437Z,69.23
2022-08-16T01:21:39.729Z,69.32
2022-08-16T01:22:47.008Z,69.32
2022-08-16T01:24:01.148Z,69.53
2022-08-16T01:24:53.626Z,69.53
2022-08-16T01:25:38.387Z,69.62
2022-08-16T01:26:37.337Z,69.73
2022-08-16T01:27:38.605Z,69.62
2022-08-16T01:28:38.945Z,69.73
2022-08-16T01:29:57.988Z,69.73
2022-08-16T01:30:40.154Z,69.82
2022-08-16T01:31:42.661Z,69.82
2022-08-16T01:32:38.277Z,69.82
2022-08-16T01:33:37.268Z,69.82
2022-08-16T01:34:47.438Z,69.82
2022-08-16T01:35:38.287Z,69.93
2022-08-16T01:36:37.250Z,70.03
2022-08-16T01:37:37.236Z,70.12
2022-08-16T01:38:37.248Z,70.12
2022-08-16T01:39:37.224Z,70.23
2022-08-16T01:40:37.189Z,70.32
2022-08-16T01:41:42.191Z,70.42
2022-08-16T01:42:38.196Z,70.46
2022-08-16T01:43:37.167Z,70.56
2022-08-16T01:44:38.246Z,70.56
2022-08-16T01:45:39.633Z,70.56
2022-08-16T01:46:40.017Z,70.56
2022-08-16T01:47:37.119Z,70.53
2022-08-16T01:48:38.110Z,70.56
2022-08-16T01:49:43.706Z,70.66
2022-08-16T01:50:41.799Z,70.76
2022-08-16T01:51:39.397Z,70.76
2022-08-16T01:52:37.188Z,70.86
2022-08-16T01:53:37.049Z,70.86
2022-08-16T01:54:37.549Z,70.96
2022-08-16T01:55:37.029Z,70.96
2022-08-16T01:56:37.019Z,70.96
2022-08-16T01:57:37.050Z,71.06
2022-08-16T01:58:37.345Z,71.06
2022-08-16T01:59:36.989Z,71.16
2022-08-16T02:00:36.979Z,71.26
2022-08-16T02:01:37.025Z,71.26
2022-08-16T02:02:36.960Z,71.26
2022-08-16T02:03:37.978Z,71.36
2022-08-16T02:04:48.651Z,71.46
2022-08-16T02:05:37.929Z,71.56
2022-08-16T02:06:38.760Z,71.69
2022-08-16T02:07:36.909Z,71.79
2022-08-16T02:08:36.892Z,71.89
2022-08-16T02:09:36.915Z,71.99
2022-08-16T02:10:36.872Z,72.09
2022-08-16T02:11:48.081Z,72.19
2022-08-16T02:12:45.827Z,72.19
2022-08-16T02:13:41.823Z,72.29
2022-08-16T02:14:36.830Z,72.39
2022-08-16T02:15:42.517Z,72.49
2022-08-16T02:16:37.810Z,72.49
2022-08-16T02:17:36.801Z,72.39
2022-08-16T02:18:36.781Z,72.49
2022-08-16T02:19:58.999Z,72.49
2022-08-16T02:20:39.623Z,72.59
2022-08-16T02:21:37.761Z,72.69
2022-08-16T02:22:37.742Z,72.69
2022-08-16T02:23:36.738Z,72.69
2022-08-16T02:24:41.165Z,72.89
2022-08-16T02:25:52.692Z,72.79
2022-08-16T02:26:37.699Z,72.79
2022-08-16T02:27:36.696Z,72.69
2022-08-16T02:28:36.702Z,72.79
2022-08-16T02:29:36.681Z,72.79
2022-08-16T02:30:43.280Z,72.89
2022-08-16T02:32:03.484Z,72.79
2022-08-16T02:32:50.421Z,72.89
2022-08-16T02:33:43.983Z,72.89
2022-08-16T02:34:40.778Z,72.89
2022-08-16T02:35:54.200Z,72.99
2022-08-16T02:36:47.386Z,73.03
2022-08-16T02:37:45.697Z,73.03
2022-08-16T02:38:37.562Z,73.13
2022-08-16T02:39:36.659Z,73.22
2022-08-16T02:40:36.549Z,73.22
2022-08-16T02:41:37.365Z,73.33
2022-08-16T02:42:36.597Z,73.33
2022-08-16T02:43:36.519Z,73.33
2022-08-16T02:44:36.502Z,73.33
2022-08-16T02:45:37.513Z,73.43
2022-08-16T02:46:36.512Z,73.53
2022-08-16T02:48:00.373Z,73.53
2022-08-16T02:48:37.871Z,73.53
2022-08-16T02:50:52.892Z,73.63
2022-08-16T02:50:54.053Z,73.63
2022-08-16T02:51:37.433Z,73.63
2022-08-16T02:52:36.423Z,73.63
2022-08-16T02:53:36.463Z,73.63
2022-08-16T02:54:36.743Z,73.53
2022-08-16T02:55:40.887Z,73.63
2022-08-16T02:56:37.382Z,73.63
2022-08-16T02:57:36.378Z,73.72
2022-08-16T02:58:37.395Z,73.63
2022-08-16T02:59:39.707Z,73.63
2022-08-16T03:00:37.334Z,73.72
2022-08-16T03:01:37.132Z,73.83
2022-08-16T03:02:36.314Z,73.72
2022-08-16T03:04:49.877Z,73.83
2022-08-16T03:04:50.352Z,73.93
2022-08-16T03:05:37.286Z,74.13
2022-08-16T03:06:41.771Z,74.46
2022-08-16T03:07:37.492Z,74.37
2022-08-16T03:08:51.983Z,74.26
2022-08-16T03:09:37.234Z,74.37
2022-08-16T03:10:36.224Z,74.37
2022-08-16T03:11:36.221Z,74.46
2022-08-16T03:12:37.774Z,75.46
2022-08-16T03:13:40.102Z,75.56
2022-08-16T03:14:36.205Z,75.26
2022-08-16T03:15:36.176Z,74.87
2022-08-16T03:16:39.042Z,74.56
2022-08-16T03:17:37.155Z,74.46
2022-08-16T03:18:40.245Z,74.37
2022-08-16T03:19:48.746Z,74.46
2022-08-16T03:20:37.126Z,74.56
2022-08-16T03:21:37.506Z,74.46
2022-08-16T03:22:36.128Z,74.46
2022-08-16T03:23:36.169Z,74.56
2022-08-16T03:24:36.105Z,74.46
2022-08-16T03:25:41.154Z,74.46
2022-08-16T03:26:37.077Z,74.46
2022-08-16T03:27:36.046Z,74.46
2022-08-16T03:28:36.055Z,74.46
2022-08-16T03:29:36.016Z,74.46
2022-08-16T03:30:36.021Z,74.37
2022-08-16T03:31:40.572Z,74.46
2022-08-16T03:32:37.197Z,74.56
2022-08-16T03:33:35.978Z,74.56
2022-08-16T03:34:35.968Z,74.66
2022-08-16T03:35:35.956Z,74.76
2022-08-16T03:36:36.015Z,74.76
2022-08-16T03:38:01.868Z,74.76
2022-08-16T03:38:36.927Z,74.87
2022-08-16T03:39:35.964Z,74.96
2022-08-16T03:40:36.936Z,74.87
2022-08-16T03:41:50.489Z,74.96
2022-08-16T03:43:18.811Z,75.06
2022-08-16T03:43:51.070Z,74.76
2022-08-16T03:44:43.956Z,74.56
2022-08-16T03:45:36.836Z,74.66
2022-08-16T03:46:44.920Z,74.90
2022-08-16T03:47:36.817Z,75.80
2022-08-16T03:48:36.940Z,76.00
2022-08-16T03:49:37.166Z,75.50
2022-08-16T03:50:35.792Z,75.80
2022-08-16T03:51:35.778Z,75.90
2022-08-16T03:52:35.798Z,76.40
2022-08-16T03:53:38.112Z,77.20
2022-08-16T03:54:35.953Z,77.00
2022-08-16T03:55:45.155Z,76.50
2022-08-16T03:56:36.727Z,76.20
2022-08-16T03:57:36.249Z,76.30
2022-08-16T03:58:37.024Z,76.20
2022-08-16T03:59:35.698Z,76.30
2022-08-16T04:00:41.020Z,76.40
2022-08-16T04:01:36.711Z,76.60
2022-08-16T04:02:35.663Z,76.30
2022-08-16T04:03:35.676Z,76.10
2022-08-16T04:04:35.647Z,75.90
2022-08-16T04:05:35.626Z,76.00
2022-08-16T04:06:35.647Z,76.60
2022-08-16T04:07:35.619Z,76.50
2022-08-16T04:08:35.618Z,76.80
2022-08-16T04:09:37.962Z,77.40
2022-08-16T04:10:38.051Z,78.20
2022-08-16T04:11:36.944Z,77.60
2022-08-16T04:12:53.373Z,77.10
2022-08-16T04:14:00.236Z,76.20
2022-08-16T04:14:36.527Z,76.40
2022-08-16T04:15:35.517Z,76.60
2022-08-16T04:16:35.511Z,76.40
2022-08-16T04:17:35.490Z,79.21
2022-08-16T04:18:35.508Z,77.60
2022-08-16T04:19:35.477Z,77.30
2022-08-16T04:20:37.021Z,78.06
2022-08-16T04:21:35.478Z,76.70
2022-08-16T04:22:35.437Z,76.06
2022-08-16T04:23:35.439Z,75.76
2022-08-16T04:24:35.418Z,75.56
2022-08-16T04:25:35.410Z,75.37
2022-08-16T04:26:35.418Z,75.37
2022-08-16T04:27:35.378Z,75.46
2022-08-16T04:28:53.208Z,75.37
2022-08-16T04:29:44.022Z,75.50
2022-08-16T04:30:36.358Z,76.00
2022-08-16T04:31:35.364Z,75.87
2022-08-16T04:32:35.612Z,75.56
2022-08-16T04:33:35.331Z,76.06
2022-08-16T04:34:35.340Z,76.26
2022-08-16T04:35:35.350Z,75.56
2022-08-16T04:36:35.301Z,75.26
2022-08-16T04:37:35.509Z,75.20
2022-08-16T04:39:57.012Z,75.20
2022-08-16T04:40:46.841Z,76.20
2022-08-16T04:41:45.776Z,76.20
2022-08-16T04:42:45.797Z,76.00
2022-08-16T04:43:45.767Z,75.70
2022-08-16T04:44:53.496Z,75.70
2022-08-16T04:45:46.727Z,75.90
2022-08-16T04:47:02.796Z,75.90
2022-08-16T04:47:46.737Z,77.00
2022-08-16T04:48:46.710Z,78.60
2022-08-16T04:49:46.113Z,77.17
2022-08-16T04:50:45.717Z,75.96
2022-08-16T04:51:45.666Z,76.06
2022-08-16T04:52:46.807Z,75.87
2022-08-16T04:53:45.647Z,75.96
2022-08-16T04:54:45.646Z,75.56
2022-08-16T04:55:45.656Z,75.76
2022-08-16T04:56:46.363Z,75.76
2022-08-16T04:57:45.636Z,75.87
2022-08-16T04:58:47.186Z,75.37
2022-08-16T04:59:45.577Z,75.16
2022-08-16T05:00:45.579Z,75.16
2022-08-16T05:01:58.363Z,75.37
2022-08-16T05:02:46.633Z,75.76
2022-08-16T05:04:00.583Z,75.46
2022-08-16T05:04:46.559Z,75.37
2022-08-16T05:05:59.065Z,75.46
2022-08-16T05:06:46.568Z,75.67
2022-08-16T05:07:58.401Z,75.37
2022-08-16T05:08:47.139Z,77.76
2022-08-16T05:09:49.313Z,77.86
2022-08-16T05:10:45.487Z,75.67
2022-08-16T05:11:45.457Z,75.67
2022-08-16T05:12:45.447Z,75.26
2022-08-16T05:13:45.490Z,74.53
2022-08-16T05:15:01.659Z,74.46
2022-08-16T05:15:46.418Z,74.66
2022-08-16T05:16:45.408Z,74.16
2022-08-16T05:17:45.390Z,74.33
2022-08-16T05:18:45.389Z,74.37
2022-08-16T05:19:54.876Z,74.06
2022-08-16T05:20:54.274Z,74.26
2022-08-16T05:21:46.429Z,74.26
2022-08-16T05:22:45.529Z,74.46
2022-08-16T05:23:51.805Z,74.76
2022-08-16T05:24:46.356Z,74.66
2022-08-16T05:25:48.490Z,74.33
2022-08-16T05:26:51.323Z,73.72
2022-08-16T05:27:46.306Z,74.03
2022-08-16T05:28:45.299Z,74.03
2022-08-16T05:29:59.875Z,73.83
2022-08-16T05:30:50.419Z,73.83
2022-08-16T05:31:48.341Z,73.93
2022-08-16T05:32:47.599Z,74.26
2022-08-16T05:33:45.221Z,74.76
2022-08-16T05:34:46.213Z,75.26
2022-08-16T05:35:55.218Z,74.26
2022-08-16T05:36:46.461Z,74.37
2022-08-16T05:37:45.181Z,74.37
2022-08-16T05:38:45.169Z,74.66
2022-08-16T05:39:45.218Z,74.66
2022-08-16T05:40:57.211Z,74.96
2022-08-16T05:41:46.301Z,75.26
2022-08-16T05:42:47.628Z,74.66
2022-08-16T05:43:47.001Z,75.26
2022-08-16T05:44:45.131Z,75.16
2022-08-16T05:45:45.089Z,75.37
2022-08-16T05:46:46.070Z,74.87
2022-08-16T05:47:45.073Z,74.87
2022-08-16T05:48:45.059Z,75.67
2022-08-16T05:49:46.230Z,74.87
2022-08-16T05:50:45.040Z,74.76
2022-08-16T05:51:46.097Z,74.96
2022-08-16T05:52:45.091Z,74.76
2022-08-16T05:53:45.012Z,74.76
2022-08-16T05:54:47.766Z,74.66
2022-08-16T05:55:44.992Z,74.56
2022-08-16T05:56:44.971Z,74.46
2022-08-16T05:57:45.008Z,74.56
2022-08-16T05:58:45.942Z,74.76
2022-08-16T05:59:44.982Z,74.76
2022-08-16T06:00:44.938Z,74.56
2022-08-16T06:01:44.995Z,74.46
2022-08-16T06:02:44.961Z,74.56
2022-08-16T06:03:44.892Z,74.56
2022-08-16T06:04:45.697Z,74.26
2022-08-16T06:05:44.911Z,74.37
2022-08-16T06:06:56.016Z,74.37
2022-08-16T06:07:45.861Z,74.46
2022-08-16T06:08:46.525Z,74.46
2022-08-16T06:09:44.863Z,74.46
2022-08-16T06:11:02.495Z,74.46
2022-08-16T06:11:45.822Z,74.37
2022-08-16T06:12:44.821Z,74.46
2022-08-16T06:13:44.792Z,74.43
2022-08-16T06:14:44.853Z,74.43
2022-08-16T06:15:44.781Z,74.43
2022-08-16T06:16:44.762Z,74.22
2022-08-16T06:17:45.742Z,74.03
2022-08-16T06:18:44.740Z,74.22
2022-08-16T06:19:44.792Z,74.03
2022-08-16T06:20:55.348Z,74.03
2022-08-16T06:21:45.712Z,73.83
2022-08-16T06:22:58.859Z,73.83
2022-08-16T06:23:45.682Z,73.89
2022-08-16T06:24:54.776Z,73.59
2022-08-16T06:25:52.925Z,73.49
2022-08-16T06:26:57.285Z,73.59
2022-08-16T06:27:57.340Z,73.79
2022-08-16T06:28:45.719Z,73.99
2022-08-16T06:29:44.643Z,73.89
2022-08-16T06:30:45.643Z,73.59
2022-08-16T06:31:46.682Z,73.29
2022-08-16T06:32:46.323Z,72.89
2022-08-16T06:33:45.108Z,72.99
2022-08-16T06:34:55.248Z,72.99
2022-08-16T06:35:45.554Z,73.09
2022-08-16T06:36:44.565Z,72.99
2022-08-16T06:37:48.587Z,72.59
2022-08-16T06:38:55.284Z,72.69
2022-08-16T06:39:49.231Z,72.89
2022-08-16T06:40:49.371Z,72.99
2022-08-16T06:41:44.528Z,72.89
2022-08-16T06:42:47.907Z,73.19
2022-08-16T06:43:44.474Z,73.09
2022-08-16T06:44:44.455Z,72.79
2022-08-16T06:45:44.476Z,72.89
2022-08-16T06:46:44.435Z,72.56
2022-08-16T06:47:53.523Z,72.39
2022-08-16T06:48:48.370Z,72.45
2022-08-16T06:49:47.904Z,72.45
2022-08-16T06:50:45.413Z,72.45
2022-08-16T06:51:46.448Z,72.16
2022-08-16T06:52:58.321Z,72.16
2022-08-16T06:53:45.515Z,72.16
2022-08-16T06:54:46.315Z,72.16
2022-08-16T06:55:45.346Z,72.06
2022-08-16T06:56:44.329Z,72.16
2022-08-16T06:57:44.324Z,72.16
2022-08-16T06:58:45.041Z,71.86
2022-08-16T06:59:52.973Z,71.86
2022-08-16T07:00:45.344Z,72.06
2022-08-16T07:01:54.658Z,72.06
2022-08-16T07:02:51.635Z,71.86
2022-08-16T07:03:55.726Z,72.06
2022-08-16T07:04:45.254Z,72.16
2022-08-16T07:05:44.245Z,72.32
2022-08-16T07:06:44.225Z,72.13
2022-08-16T07:07:44.215Z,71.72
2022-08-16T07:08:44.205Z,71.22
2022-08-16T07:09:44.227Z,71.19
2022-08-16T07:10:44.186Z,70.99
2022-08-16T07:11:48.182Z,71.09
2022-08-16T07:12:47.508Z,70.99
2022-08-16T07:14:01.923Z,70.89
2022-08-16T07:14:45.155Z,70.79
2022-08-16T07:15:49.954Z,70.69
2022-08-16T07:16:45.119Z,70.56
2022-08-16T07:17:44.116Z,70.56
2022-08-16T07:18:58.666Z,70.46
2022-08-16T07:20:03.053Z,70.26
2022-08-16T07:20:47.276Z,70.36
2022-08-16T07:21:46.422Z,70.26
2022-08-16T07:22:52.756Z,70.16
2022-08-16T07:23:45.058Z,70.03
2022-08-16T07:24:45.881Z,70.03
2022-08-16T07:25:44.028Z,69.92
2022-08-16T07:26:48.792Z,70.03
2022-08-16T07:27:45.038Z,69.73
2022-08-16T07:28:43.987Z,69.43
2022-08-16T07:29:43.988Z,69.62
2022-08-16T07:30:46.661Z,69.69
2022-08-16T07:31:43.958Z,69.59
2022-08-16T07:32:51.607Z,69.49
2022-08-16T07:33:52.336Z,69.29
2022-08-16T07:34:48.445Z,69.20
2022-08-16T07:35:44.107Z,68.90
2022-08-16T07:36:45.059Z,68.99
2022-08-16T07:37:43.898Z,69.09
2022-08-16T07:38:43.878Z,69.20
2022-08-16T07:39:43.970Z,69.39
2022-08-16T07:41:00.573Z,69.09
2022-08-16T07:41:44.879Z,69.20
2022-08-16T07:42:43.850Z,68.99
2022-08-16T07:43:43.839Z,69.09
2022-08-16T07:44:50.691Z,69.29
2022-08-16T07:45:49.456Z,69.39
2022-08-16T07:46:44.811Z,69.20
2022-08-16T07:47:43.820Z,69.29
2022-08-16T07:48:43.809Z,68.79
2022-08-16T07:49:53.355Z,68.90
2022-08-16T07:50:57.922Z,69.09
2022-08-16T07:51:44.750Z,69.59
2022-08-16T07:52:43.771Z,69.49
2022-08-16T07:53:44.053Z,69.49
2022-08-16T07:54:45.704Z,69.16
2022-08-16T07:55:48.118Z,68.66
2022-08-16T07:56:43.698Z,68.86
2022-08-16T07:57:55.863Z,68.56
2022-08-16T07:58:44.700Z,68.37
2022-08-16T07:59:45.611Z,68.33
2022-08-16T08:00:43.673Z,68.43
2022-08-16T08:01:43.660Z,68.53
2022-08-16T08:02:43.664Z,68.53
2022-08-16T08:03:48.333Z,68.43
2022-08-16T08:04:44.613Z,68.43
2022-08-16T08:05:43.600Z,68.53
2022-08-16T08:06:43.611Z,67.73
2022-08-16T08:07:45.263Z,67.63
2022-08-16T08:08:51.044Z,67.73
2022-08-16T08:09:44.561Z,67.80
2022-08-16T08:10:43.557Z,68.10
2022-08-16T08:11:59.969Z,67.80
2022-08-16T08:12:44.551Z,67.60
2022-08-16T08:13:43.542Z,67.30
2022-08-16T08:14:43.521Z,67.40
2022-08-16T08:15:52.408Z,67.30
2022-08-16T08:16:45.339Z,67.37
2022-08-16T08:17:44.112Z,67.17
2022-08-16T08:18:43.451Z,66.77
2022-08-16T08:19:44.452Z,66.97
2022-08-16T08:20:44.483Z,66.87
2022-08-16T08:21:58.572Z,66.87
2022-08-16T08:22:44.471Z,66.47
2022-08-16T08:23:43.423Z,66.57
2022-08-16T08:24:44.059Z,66.54
2022-08-16T08:25:54.990Z,66.05
2022-08-16T08:26:44.452Z,66.14
2022-08-16T08:27:44.430Z,65.64
2022-08-16T08:28:43.353Z,65.55
2022-08-16T08:29:43.382Z,65.75
2022-08-16T08:30:51.103Z,65.75
2022-08-16T08:31:44.323Z,65.45
2022-08-16T08:32:56.967Z,65.64
2022-08-16T08:33:47.328Z,65.64
2022-08-16T08:34:46.452Z,65.55
2022-08-16T08:35:43.293Z,65.05
2022-08-16T08:36:43.273Z,65.05
2022-08-16T08:37:55.346Z,65.25
2022-08-16T08:38:45.773Z,65.45
2022-08-16T08:39:53.290Z,65.35
2022-08-16T08:40:44.264Z,65.45
2022-08-16T08:41:43.224Z,65.45
2022-08-16T08:42:43.241Z,65.35
2022-08-16T08:43:43.204Z,64.85
2022-08-16T08:44:43.193Z,63.82
2022-08-16T08:45:48.295Z,63.23
2022-08-16T08:46:44.198Z,63.23
2022-08-16T08:47:44.155Z,63.63
2022-08-16T08:48:44.145Z,63.63
2022-08-16T08:49:47.058Z,63.53
2022-08-16T08:50:44.124Z,63.49
2022-08-16T08:51:44.143Z,63.60
2022-08-16T08:52:43.105Z,63.30
2022-08-16T08:53:43.102Z,63.60
2022-08-16T08:54:43.082Z,63.49
2022-08-16T08:55:43.075Z,63.46
2022-08-16T08:56:45.756Z,63.27
2022-08-16T08:57:43.054Z,62.97
2022-08-16T08:58:54.791Z,62.77
2022-08-16T08:59:44.025Z,62.54
2022-08-16T09:00:51.031Z,62.45
2022-08-16T09:01:57.452Z,62.45
2022-08-16T09:02:52.257Z,62.24
2022-08-16T09:03:44.045Z,61.94
2022-08-16T09:04:42.976Z,62.05
2022-08-16T09:05:42.968Z,61.94
2022-08-16T09:06:43.060Z,62.05
2022-08-16T09:08:00.271Z,61.94
2022-08-16T09:08:47.414Z,61.55
2022-08-16T09:09:43.008Z,61.94
2022-08-16T09:10:42.915Z,62.15
2022-08-16T09:11:42.905Z,62.34
2022-08-16T09:12:47.386Z,62.54
2022-08-16T09:13:47.376Z,62.45
2022-08-16T09:14:49.393Z,62.02
2022-08-16T09:15:43.864Z,61.82
2022-08-16T09:17:01.745Z,61.72
2022-08-16T09:17:53.639Z,61.42
2022-08-16T09:18:43.896Z,61.42
2022-08-16T09:19:42.857Z,59.63
2022-08-16T09:20:58.705Z,59.14
2022-08-16T09:21:43.808Z,59.34
2022-08-16T09:22:42.788Z,59.83
2022-08-16T09:23:42.778Z,60.00
2022-08-16T09:24:53.301Z,60.20
2022-08-16T09:25:43.748Z,60.60
2022-08-16T09:26:45.591Z,60.89
2022-08-16T09:27:46.767Z,60.80
2022-08-16T09:29:14.985Z,60.89
2022-08-16T09:29:44.850Z,60.20
2022-08-16T09:30:43.921Z,60.00
2022-08-16T09:31:42.704Z,60.60
2022-08-16T09:32:42.688Z,60.70
2022-08-16T09:33:42.699Z,60.30
2022-08-16T09:34:42.666Z,59.70
2022-08-16T09:35:43.091Z,59.67
2022-08-16T09:36:46.058Z,59.58
2022-08-16T09:37:42.629Z,59.28
2022-08-16T09:38:42.620Z,58.19
2022-08-16T09:39:44.105Z,58.09
2022-08-16T09:40:43.998Z,58.09
2022-08-16T09:41:42.591Z,58.69
2022-08-16T09:42:55.900Z,59.18
2022-08-16T09:43:58.446Z,59.08
2022-08-16T09:45:11.742Z,58.29
2022-08-16T09:45:43.561Z,58.16
2022-08-16T09:46:48.882Z,58.36
2022-08-16T09:47:56.922Z,56.77
2022-08-16T09:48:44.682Z,56.68
2022-08-16T09:49:43.549Z,56.87
2022-08-16T09:50:43.500Z,57.27
2022-08-16T09:51:42.501Z,57.57
2022-08-16T09:52:47.792Z,57.57
2022-08-16T09:53:43.459Z,57.97
2022-08-16T09:54:44.372Z,57.86
2022-08-16T09:55:44.584Z,58.06
2022-08-16T09:56:52.348Z,58.36
2022-08-16T09:57:43.420Z,58.56
2022-08-16T09:59:04.942Z,58.33
2022-08-16T09:59:43.392Z,58.03
2022-08-16T10:00:45.128Z,57.93
2022-08-16T10:01:43.353Z,57.93
2022-08-16T10:02:44.276Z,57.44
2022-08-16T10:04:01.732Z,57.44
2022-08-16T10:04:54.820Z,57.21
2022-08-16T10:05:43.331Z,57.31
2022-08-16T10:06:46.235Z,57.02
2022-08-16T10:07:45.019Z,56.92
2022-08-16T10:09:04.308Z,56.02
2022-08-16T10:09:54.241Z,56.25
2022-08-16T10:10:43.312Z,56.35
2022-08-16T10:11:50.088Z,56.65
2022-08-16T10:12:43.389Z,56.95
2022-08-16T10:13:42.253Z,57.14
2022-08-16T10:14:45.872Z,57.04
2022-08-16T10:15:42.224Z,56.85
2022-08-16T10:16:42.253Z,56.95
2022-08-16T10:17:43.220Z,56.62
2022-08-16T10:19:01.166Z,56.52
2022-08-16T10:19:43.465Z,55.93
2022-08-16T10:20:42.184Z,55.63
2022-08-16T10:21:42.195Z,55.41
2022-08-16T10:22:42.164Z,55.30
2022-08-16T10:23:42.213Z,54.81
2022-08-16T10:24:58.428Z,54.79
2022-08-16T10:27:19.779Z,54.98
2022-08-16T10:27:20.843Z,55.18
2022-08-16T10:27:56.989Z,55.18
2022-08-16T10:28:43.181Z,55.08
2022-08-16T10:30:00.839Z,54.79
2022-08-16T10:30:43.084Z,54.69
2022-08-16T10:31:44.361Z,53.99
2022-08-16T10:32:42.056Z,54.10
2022-08-16T10:33:42.037Z,53.99
2022-08-16T10:34:42.035Z,54.10
2022-08-16T10:35:46.609Z,54.10
2022-08-16T10:36:42.015Z,53.57
2022-08-16T10:37:42.016Z,53.57
2022-08-16T10:38:49.027Z,53.47
2022-08-16T10:39:42.518Z,52.61
2022-08-16T10:40:45.537Z,52.31
2022-08-16T10:41:45.205Z,52.31
2022-08-16T10:42:41.949Z,52.31
2022-08-16T10:43:41.930Z,52.39
2022-08-16T10:44:42.500Z,52.29
2022-08-16T10:45:42.003Z,52.41
2022-08-16T10:46:42.390Z,52.91
2022-08-16T10:47:41.891Z,53.20
2022-08-16T10:48:41.901Z,53.00
2022-08-16T10:49:42.870Z,52.81
2022-08-16T10:50:41.892Z,52.22
2022-08-16T10:52:03.225Z,51.92
2022-08-16T10:52:42.903Z,52.01
2022-08-16T10:53:41.831Z,52.22
2022-08-16T10:55:44.539Z,49.94
2022-08-16T10:56:51.534Z,50.34
2022-08-16T10:57:42.800Z,50.63
2022-08-16T10:58:41.811Z,50.41
2022-08-16T10:59:52.911Z,50.61
2022-08-16T11:00:42.771Z,50.81
2022-08-16T11:01:44.178Z,51.10
2022-08-16T11:02:59.018Z,50.29
2022-08-16T11:03:44.686Z,50.09
2022-08-16T11:07:06.713Z,50.38
2022-08-16T11:07:43.561Z,50.26
2022-08-16T11:08:45.383Z,50.36
2022-08-16T11:09:43.804Z,50.46
2022-08-16T11:12:42.739Z,50.04
2022-08-16T11:13:58.735Z,50.04
2022-08-16T11:15:11.379Z,49.67
2022-08-16T11:15:47.859Z,49.87
2022-08-16T11:17:45.005Z,50.48
2022-08-16T11:18:48.361Z,50.78
2022-08-16T11:20:42.946Z,50.88
2022-08-16T11:22:48.273Z,49.18
2022-08-16T11:23:58.113Z,49.57
2022-08-16T11:24:44.853Z,49.87
2022-08-16T11:26:07.528Z,49.77
2022-08-16T11:26:42.523Z,49.77
2022-08-16T11:27:41.493Z,50.07
2022-08-16T11:29:42.462Z,49.65
2022-08-16T11:30:41.444Z,49.35
2022-08-16T11:31:42.521Z,49.25
2022-08-16T11:32:41.525Z,49.87
2022-08-16T11:33:56.839Z,49.77
2022-08-16T11:35:05.852Z,49.87
2022-08-16T11:35:44.117Z,49.77
2022-08-16T11:36:59.358Z,49.08
2022-08-16T11:38:51.149Z,48.98
2022-08-16T11:39:42.424Z,48.98
2022-08-16T11:40:44.419Z,48.09
2022-08-16T11:41:43.670Z,48.66
2022-08-16T11:42:41.328Z,48.66
2022-08-16T11:43:41.308Z,48.44
2022-08-16T11:44:52.918Z,47.85
2022-08-16T11:45:42.491Z,47.85
2022-08-16T11:46:45.641Z,47.23
2022-08-16T11:47:42.318Z,46.94
2022-08-16T11:48:41.297Z,46.74
2022-08-16T11:49:41.270Z,46.34
2022-08-16T11:50:41.251Z,46.44
2022-08-16T11:51:41.235Z,46.34
2022-08-16T11:52:41.218Z,46.47
2022-08-16T11:53:42.238Z,46.96
2022-08-16T11:54:41.240Z,46.66
2022-08-16T11:55:43.968Z,46.07
2022-08-16T11:56:52.901Z,45.78
2022-08-16T11:57:42.168Z,46.39
2022-08-16T11:58:41.177Z,46.88
2022-08-16T11:59:41.228Z,46.76
2022-08-16T12:00:50.341Z,46.66
2022-08-16T12:01:44.595Z,45.87
2022-08-16T12:02:45.803Z,45.67
2022-08-16T12:03:41.881Z,45.57
2022-08-16T12:04:41.190Z,46.17
2022-08-16T12:05:41.082Z,46.44
2022-08-16T12:06:41.077Z,46.34
2022-08-16T12:07:41.159Z,46.04
2022-08-16T12:08:41.343Z,45.75
2022-08-16T12:09:43.335Z,45.85
2022-08-16T12:10:41.039Z,46.25
2022-08-16T12:11:41.030Z,46.15
2022-08-16T12:12:41.052Z,46.04
2022-08-16T12:13:41.001Z,46.15
2022-08-16T12:14:41.019Z,45.85
2022-08-16T12:15:41.002Z,45.24
2022-08-16T12:16:40.969Z,45.65
2022-08-16T12:17:42.083Z,45.85
2022-08-16T12:18:41.001Z,45.95
2022-08-16T12:19:40.937Z,46.54
2022-08-16T12:20:40.970Z,45.53
2022-08-16T12:21:58.792Z,45.73
2022-08-16T12:22:41.921Z,45.83
2022-08-16T12:23:40.902Z,46.12
2022-08-16T12:24:40.891Z,46.12
2022-08-16T12:25:40.881Z,45.83
2022-08-16T12:26:40.903Z,45.53
2022-08-16T12:27:40.905Z,45.31
2022-08-16T12:28:54.305Z,44.84
2022-08-16T12:29:41.831Z,45.63
2022-08-16T12:30:40.830Z,46.15
2022-08-16T12:31:59.205Z,46.25
2022-08-16T12:32:42.218Z,46.25
2022-08-16T12:33:44.400Z,46.47
2022-08-16T12:34:50.815Z,46.17
2022-08-16T12:35:41.771Z,46.56
2022-08-16T12:36:40.770Z,46.56
2022-08-16T12:37:41.648Z,46.66
2022-08-16T12:38:46.733Z,47.06
2022-08-16T12:39:47.049Z,47.18
2022-08-16T12:40:41.882Z,46.76
2022-08-16T12:41:45.135Z,46.76
2022-08-16T12:42:52.552Z,46.86
2022-08-16T12:43:45.231Z,46.26
2022-08-16T12:44:40.684Z,46.37
2022-08-16T12:45:40.665Z,46.37
2022-08-16T12:46:40.664Z,46.34
2022-08-16T12:47:40.674Z,45.95
2022-08-16T12:48:42.240Z,46.37
2022-08-16T12:49:42.029Z,45.87
2022-08-16T12:50:40.633Z,45.97
2022-08-16T12:51:58.420Z,45.97
2022-08-16T12:52:44.372Z,45.97
2022-08-16T12:53:41.615Z,46.17
2022-08-16T12:54:40.573Z,46.54
2022-08-16T12:55:42.085Z,46.64
2022-08-16T12:56:40.554Z,46.44
2022-08-16T12:57:40.563Z,46.44
2022-08-16T12:58:48.967Z,45.36
2022-08-16T12:59:41.544Z,45.56
2022-08-16T13:00:40.544Z,45.46
2022-08-16T13:01:40.502Z,45.24
2022-08-16T13:02:40.495Z,44.65
2022-08-16T13:03:40.824Z,44.62